Time;durP1;ratioP1;P1;durP2;ratioP2;P2;SDS_P1;SDS_P2;PMS_P1;PMS_P2;Temp;Humidity;BMP_temperature;BMP_pressure;BME280_temperature;BME280_humidity;BME280_pressure;Samples;Min_cycle;Max_cycle;Signal;HPM_P1;HPM_P2
2022/08/27 00:01:30;;;;;;;17.15;6.53;;;;;;;22.41;84.97;100011.22;5010202;28;20042;-86
2022/08/27 00:03:56;;;;;;;10.55;6.63;;;;;;;22.33;85.21;100014.22;5010222;28;20038;-87
2022/08/27 00:06:25;;;;;;;14.90;6.38;;;;;;;22.31;85.17;100016.28;5008998;28;20382;-86
2022/08/27 00:08:54;;;;;;;7.68;6.13;;;;;;;22.35;84.67;100010.28;5011262;28;20367;-85
2022/08/27 00:12:05;;;;;;;11.73;6.63;;;;;;;22.25;85.60;100009.25;5011262;28;20080;-86
2022/08/27 00:14:13;;;;;;;12.93;7.50;;;;;;;22.07;87.13;100018.97;5005688;28;20048;-86
2022/08/27 00:17:39;;;;;;;7.90;6.43;;;;;;;21.96;87.66;100019.72;5008569;28;21640;-85
2022/08/27 00:20:08;;;;;;;14.30;7.43;;;;;;;21.88;87.83;100022.72;4914843;29;20056;-86
2022/08/27 00:22:34;;;;;;;11.65;6.43;;;;;;;21.89;88.11;100013.72;4894030;29;20048;-86
2022/08/27 00:25:00;;;;;;;12.50;7.07;;;;;;;21.91;87.59;100016.97;4896285;29;20036;-86
2022/08/27 00:27:26;;;;;;;9.95;6.90;;;;;;;21.88;87.75;100021.91;4911131;29;20043;-87
2022/08/27 00:29:51;;;;;;;13.35;6.93;;;;;;;21.84;88.15;100024.22;4912226;29;20032;-86
2022/08/27 00:32:17;;;;;;;11.73;6.43;;;;;;;21.79;88.42;100024.91;4896297;29;20047;-85
2022/08/27 00:34:43;;;;;;;11.70;7.35;;;;;;;21.75;88.91;100017.63;4896305;29;20418;-87
2022/08/27 00:37:09;;;;;;;14.60;7.32;;;;;;;21.81;88.32;100027.31;4894181;29;20072;-87
2022/08/27 00:39:35;;;;;;;10.48;6.82;;;;;;;21.93;87.46;100014.88;4910798;29;20040;-86
2022/08/27 00:42:03;;;;;;;10.50;7.68;;;;;;;21.90;87.84;100019.84;4896006;29;20547;-87
2022/08/27 00:44:29;;;;;;;15.73;6.95;;;;;;;21.83;87.56;100019.94;4895955;29;20047;-87
2022/08/27 00:47:00;;;;;;;18.08;7.07;;;;;;;21.99;86.51;100027.22;4910797;29;20043;-88
2022/08/27 00:49:35;;;;;;;13.38;6.28;;;;;;;22.16;85.31;100025.56;4895971;29;20520;-88
2022/08/27 00:52:04;;;;;;;;;;;;;;;22.19;85.09;100024.28;4895974;29;20104;-87
2022/08/27 00:54:52;;;;;;;9.90;6.18;;;;;;;22.25;84.66;100025.19;4981758;28;20025;-90
2022/08/27 00:57:17;;;;;;;11.30;6.28;;;;;;;22.24;85.02;100018.25;5008868;28;20048;-88
2022/08/27 00:59:54;;;;;;;14.88;6.13;;;;;;;22.24;84.69;100018.25;5009050;28;20034;-87
2022/08/27 01:02:20;;;;;;;10.70;5.93;;;;;;;22.26;84.33;100024.94;5009053;28;20387;-88
2022/08/27 01:04:54;;;;;;;11.77;6.00;;;;;;;22.32;84.03;100023.22;5010973;28;20044;-88
2022/08/27 01:07:21;;;;;;;8.98;5.63;;;;;;;22.35;83.85;100018.25;5007110;28;20131;-88
2022/08/27 01:09:48;;;;;;;16.42;7.10;;;;;;;22.39;83.51;100015.94;5009407;28;20040;-88
2022/08/27 01:12:17;;;;;;;9.30;5.68;;;;;;;22.43;83.15;100019.75;5009268;28;20069;-88
2022/08/27 01:14:45;;;;;;;9.63;5.45;;;;;;;22.41;82.99;100016.53;5009065;28;20059;-88
2022/08/27 01:17:17;;;;;;;8.48;5.90;;;;;;;22.43;82.60;100017.09;5023443;28;20040;-88
2022/08/27 01:19:57;;;;;;;12.65;5.68;;;;;;;22.51;81.81;100012.25;5022479;28;20033;-86
2022/08/27 01:22:43;;;;;;;13.07;5.45;;;;;;;22.50;82.28;100015.13;5023786;28;20100;-85
2022/08/27 01:25:12;;;;;;;12.95;6.68;;;;;;;22.49;82.24;100014.31;5024097;28;20098;-86
2022/08/27 01:27:39;;;;;;;11.35;6.15;;;;;;;22.46;82.62;100011.31;5024024;28;20084;-86
2022/08/27 01:30:07;;;;;;;13.02;6.60;;;;;;;22.42;83.06;100018.94;5008765;28;20029;-87
2022/08/27 01:32:51;;;;;;;11.85;5.60;;;;;;;22.41;83.12;100016.53;5008619;28;20096;-86
2022/08/27 01:35:31;;;;;;;13.88;6.40;;;;;;;22.37;83.22;100015.38;5007653;28;20038;-87
2022/08/27 01:37:57;;;;;;;8.35;5.43;;;;;;;22.33;83.04;100020.34;5009550;28;20041;-85
2022/08/27 01:40:23;;;;;;;15.18;6.22;;;;;;;22.34;83.09;100026.44;5009736;28;20045;-86
2022/08/27 01:42:53;;;;;;;18.10;5.82;;;;;;;22.35;83.20;100012.94;5008235;28;20052;-86
2022/08/27 01:45:23;;;;;;;8.48;5.93;;;;;;;22.35;83.13;100026.22;5006634;28;20230;-87
2022/08/27 01:47:51;;;;;;;17.65;7.03;;;;;;;22.30;83.55;100018.13;5008201;28;20049;-86
2022/08/27 01:50:25;;;;;;;13.00;6.38;;;;;;;22.30;83.43;100023.44;5007986;28;20037;-87
2022/08/27 01:52:51;;;;;;;11.55;7.18;;;;;;;22.33;83.72;100024.84;5007105;28;20037;-86
2022/08/27 01:55:24;;;;;;;8.43;5.60;;;;;;;22.30;83.64;100018.13;5007546;28;20045;-85
2022/08/27 01:57:50;;;;;;;15.48;6.80;;;;;;;22.27;83.99;100020.44;5009192;28;20040;-86
2022/08/27 02:00:22;;;;;;;14.63;6.05;;;;;;;22.17;84.27;100015.75;5007692;28;20060;-88
2022/08/27 02:02:48;;;;;;;10.82;6.22;;;;;;;22.13;84.25;100012.75;5007841;28;20057;-87
2022/08/27 02:05:15;;;;;;;11.57;5.95;;;;;;;22.10;84.99;100010.56;5006809;28;20056;-87
2022/08/27 02:08:02;;;;;;;15.65;6.10;;;;;;;22.10;84.58;100010.56;5006878;28;20501;-87
2022/08/27 02:10:31;;;;;;;12.68;6.03;;;;;;;22.10;84.72;100007.09;5008829;28;20041;-87
2022/08/27 02:12:56;;;;;;;11.95;5.55;;;;;;;22.15;84.32;100013.31;5007559;28;20038;-86
2022/08/27 02:15:23;;;;;;;11.98;5.90;;;;;;;22.22;83.66;100009.72;5007683;28;20095;-86
2022/08/27 02:17:49;;;;;;;10.15;5.97;;;;;;;22.22;83.70;100005.22;5009075;28;20033;-88
2022/08/27 02:20:15;;;;;;;9.20;5.55;;;;;;;22.17;85.08;100007.78;5007713;28;20543;-86
2022/08/27 02:22:41;;;;;;;15.25;5.32;;;;;;;22.03;85.66;99999.25;5008901;28;20036;-87
2022/08/27 02:25:12;;;;;;;11.75;5.65;;;;;;;21.93;86.77;100000.81;5008050;28;20025;-87
2022/08/27 02:27:38;;;;;;;11.57;6.38;;;;;;;21.78;87.29;100002.06;5008449;28;20115;-87
2022/08/27 02:30:05;;;;;;;13.55;6.80;;;;;;;21.68;87.97;100011.66;5007338;28;20527;-85
2022/08/27 02:32:31;;;;;;;11.30;5.68;;;;;;;21.62;88.48;100009.91;5007815;28;20473;-88
2022/08/27 02:34:57;;;;;;;12.38;6.47;;;;;;;21.52;88.86;100008.59;5007112;28;20033;-87
2022/08/27 02:37:25;;;;;;;14.00;5.85;;;;;;;21.49;88.86;100008.25;5008741;28;20036;-86
2022/08/27 02:39:50;;;;;;;8.32;6.38;;;;;;;21.50;89.23;100004.56;5006811;28;20485;-86
2022/08/27 02:42:16;;;;;;;8.85;5.43;;;;;;;21.44;89.96;100003.63;5338688;22;20053;-88
2022/08/27 02:44:42;;;;;;;13.85;6.68;;;;;;;21.39;89.79;100006.13;5027027;28;20033;-86
2022/08/27 02:47:07;;;;;;;13.23;6.13;;;;;;;21.33;89.87;100004.38;5028629;28;20040;-86
2022/08/27 02:49:33;;;;;;;8.18;5.93;;;;;;;21.36;90.18;99992.53;5028643;28;20388;-86
2022/08/27 02:51:59;;;;;;;13.30;5.97;;;;;;;21.33;90.13;99987.69;5025798;28;20029;-86
2022/08/27 02:54:37;;;;;;;9.80;6.05;;;;;;;21.29;90.37;99987.31;5027479;28;20134;-87
2022/08/27 02:57:03;;;;;;;11.75;5.40;;;;;;;21.57;88.52;99981.41;5028528;28;20343;-87
2022/08/27 02:59:28;;;;;;;7.07;5.25;;;;;;;21.55;88.51;99990.63;5026429;28;20030;-88
2022/08/27 03:01:54;;;;;;;13.15;6.50;;;;;;;21.44;89.60;99986.91;5026718;28;20028;-86
2022/08/27 03:04:22;;;;;;;9.68;6.57;;;;;;;21.34;90.45;99978.69;5026739;28;20506;-87
2022/08/27 03:06:48;;;;;;;12.15;5.68;;;;;;;21.24;91.10;99979.28;5026364;28;20057;-85
2022/08/27 03:09:14;;;;;;;10.35;6.70;;;;;;;21.15;91.23;99977.94;5026295;28;20520;-86
2022/08/27 03:11:40;;;;;;;18.05;6.15;;;;;;;21.09;91.74;99984.13;5028002;28;20488;-86
2022/08/27 03:14:06;;;;;;;9.13;6.80;;;;;;;21.05;92.25;99990.91;5028155;28;20036;-85
2022/08/27 03:16:36;;;;;;;9.77;6.15;;;;;;;20.99;92.24;99992.63;5027827;28;20034;-87
2022/08/27 03:19:06;;;;;;;14.05;6.78;;;;;;;20.97;92.54;99993.88;5026376;28;20084;-85
2022/08/27 03:21:33;;;;;;;15.13;7.38;;;;;;;20.96;92.58;99992.25;5026726;28;20025;-87
2022/08/27 03:24:00;;;;;;;10.30;7.07;;;;;;;21.02;92.17;99996.66;5026325;28;20751;-88
2022/08/27 03:26:27;;;;;;;10.32;6.15;;;;;;;21.04;92.45;99995.41;5026598;28;20498;-85
2022/08/27 03:28:52;;;;;;;10.52;6.80;;;;;;;21.03;92.51;99987.69;5028547;28;20055;-89
2022/08/27 03:31:25;;;;;;;14.40;6.82;;;;;;;21.03;92.13;99998.28;5031134;28;20327;-87
2022/08/27 03:33:56;;;;;;;10.45;6.88;;;;;;;20.99;92.59;99987.31;5030398;28;20128;-86
2022/08/27 03:36:22;;;;;;;13.25;6.70;;;;;;;20.94;93.07;99987.19;5030295;28;20030;-86
2022/08/27 03:38:48;;;;;;;10.00;6.70;;;;;;;20.91;93.41;99989.47;5032033;28;20029;-87
2022/08/27 03:41:33;;;;;;;9.30;6.00;;;;;;;20.85;93.62;99989.31;5031435;28;20061;-85
2022/08/27 03:43:59;;;;;;;10.65;6.88;;;;;;;20.84;93.61;99994.84;5029756;28;20056;-86
2022/08/27 03:46:28;;;;;;;12.48;6.35;;;;;;;20.84;93.70;99994.84;5030171;28;20030;-87
2022/08/27 03:48:54;;;;;;;11.95;6.65;;;;;;;20.80;94.21;99994.47;5031150;28;20145;-88
2022/08/27 03:51:20;;;;;;;9.88;6.63;;;;;;;20.76;94.05;100003.91;5029986;28;20111;-86
2022/08/27 03:53:46;;;;;;;12.18;6.32;;;;;;;20.77;94.18;99997.59;5031263;28;20032;-86
2022/08/27 03:56:13;;;;;;;14.45;7.22;;;;;;;20.78;94.21;100001.03;5029925;28;20029;-86
2022/08/27 03:58:41;;;;;;;13.60;6.85;;;;;;;20.80;94.31;100002.41;5029612;28;20033;-87
2022/08/27 04:01:08;;;;;;;11.52;6.65;;;;;;;20.79;93.81;100006.13;5029825;28;20022;-88
2022/08/27 04:03:34;;;;;;;13.90;7.35;;;;;;;20.86;93.67;100003.38;5029597;28;20021;-87
2022/08/27 04:05:59;;;;;;;12.05;7.75;;;;;;;20.92;93.10;100001.66;5030066;28;20021;-87
2022/08/27 04:08:26;;;;;;;10.45;6.38;;;;;;;21.03;92.33;100004.38;5030551;28;20031;-86
2022/08/27 04:10:53;;;;;;;9.68;7.35;;;;;;;21.08;91.96;100006.34;5029788;28;20030;-85
2022/08/27 04:13:20;;;;;;;14.52;6.43;;;;;;;21.20;91.08;100012.50;5013509;28;20523;-87
2022/08/27 04:15:48;;;;;;;13.25;7.82;;;;;;;21.26;90.70;100011.66;5029658;28;20030;-88
2022/08/27 04:18:15;;;;;;;8.85;6.47;;;;;;;21.28;90.62;100006.91;5031746;28;20387;-86
2022/08/27 04:20:44;;;;;;;13.00;6.97;;;;;;;21.25;90.69;100011.88;5031474;28;20030;-88
2022/08/27 04:23:09;;;;;;;12.30;6.32;;;;;;;21.28;90.16;100014.84;5029781;28;20531;-87
2022/08/27 04:25:55;;;;;;;13.55;6.60;;;;;;;21.32;90.59;100016.03;5030980;28;20030;-87
2022/08/27 04:28:21;;;;;;;13.95;7.13;;;;;;;21.37;89.69;100012.69;5030284;28;20084;-84
2022/08/27 04:30:46;;;;;;;9.73;6.22;;;;;;;21.48;89.23;100014.59;5030742;28;20056;-86
2022/08/27 04:33:15;;;;;;;11.93;6.10;;;;;;;21.50;88.96;100010.66;5029330;28;20099;-86
2022/08/27 04:35:42;;;;;;;12.30;7.10;;;;;;;21.47;89.45;100016.44;5030857;28;20022;-85
2022/08/27 04:38:07;;;;;;;12.63;6.35;;;;;;;21.47;89.48;100018.25;5029221;28;20029;-86
2022/08/27 04:43:20;;;;;;;9.93;6.63;;;;;;;21.46;89.00;100014.00;5031679;28;20092;-86
2022/08/27 04:45:47;;;;;;;14.98;7.15;;;;;;;21.46;88.63;100017.47;5028956;28;20047;-86
2022/08/27 04:48:15;;;;;;;11.27;6.40;;;;;;;21.49;88.34;100024.97;5029099;28;20370;-87
2022/08/27 04:50:42;;;;;;;17.45;7.22;;;;;;;21.56;88.15;100016.09;5028927;28;20026;-86
2022/08/27 04:53:17;;;;;;;11.73;6.53;;;;;;;21.63;87.29;100030.88;5029061;28;20021;-86
2022/08/27 04:55:43;;;;;;;11.25;6.53;;;;;;;21.63;87.64;100032.72;5028661;28;20033;-87
2022/08/27 04:58:09;;;;;;;13.13;6.45;;;;;;;21.64;87.58;100024.53;5028851;28;20124;-86
2022/08/27 05:00:43;;;;;;;14.50;6.18;;;;;;;21.68;87.34;100030.19;5030783;28;20108;-87
2022/08/27 05:03:09;;;;;;;11.07;6.93;;;;;;;21.69;87.57;100029.16;5030455;28;20029;-87
2022/08/27 05:05:35;;;;;;;13.60;6.78;;;;;;;21.67;87.18;100041.84;5028890;28;20412;-86
2022/08/27 05:08:01;;;;;;;12.43;6.10;;;;;;;21.72;87.22;100034.00;5028717;28;20441;-84
2022/08/27 05:10:27;;;;;;;12.07;6.50;;;;;;;21.72;87.69;100034.00;5028698;28;20025;-86
2022/08/27 05:12:52;;;;;;;13.20;5.82;;;;;;;21.74;87.07;100039.91;5030229;28;20453;-88
2022/08/27 05:15:18;;;;;;;9.93;6.28;;;;;;;21.85;86.69;100037.25;5032282;28;20057;-85
2022/08/27 05:17:43;;;;;;;13.43;5.90;;;;;;;21.93;86.16;100032.66;5030897;28;20029;-90
2022/08/27 05:20:09;;;;;;;9.80;5.50;;;;;;;21.96;85.88;100027.69;5030865;28;20495;-87
2022/08/27 05:22:35;;;;;;;11.80;5.97;;;;;;;21.99;85.57;100032.53;5030014;28;20449;-88
2022/08/27 05:25:00;;;;;;;10.52;5.45;;;;;;;22.02;85.48;100037.41;5028622;28;20057;-88
2022/08/27 05:27:26;;;;;;;10.68;5.82;;;;;;;22.08;85.67;100039.16;5030110;28;20500;-86
2022/08/27 05:29:51;;;;;;;18.02;6.72;;;;;;;22.13;85.04;100039.28;5028336;28;20036;-88
2022/08/27 05:32:17;;;;;;;8.57;5.65;;;;;;;22.23;84.88;100045.81;5029866;28;20457;-84
2022/08/27 05:34:42;;;;;;;9.05;6.63;;;;;;;22.25;84.93;100033.13;5028355;28;20338;-87
2022/08/27 05:37:08;;;;;;;17.40;5.82;;;;;;;22.31;84.59;100037.53;5028117;28;20061;-85
2022/08/27 05:39:34;;;;;;;12.43;6.57;;;;;;;22.32;84.36;100039.94;5028162;28;20032;-86
2022/08/27 05:42:00;;;;;;;12.20;6.50;;;;;;;22.33;84.50;100035.44;5027986;28;20049;-86
2022/08/27 05:44:26;;;;;;;13.00;5.95;;;;;;;22.37;84.14;100039.25;5028136;28;20025;-87
2022/08/27 05:46:51;;;;;;;12.25;6.00;;;;;;;22.40;83.95;100036.13;5028034;28;20061;-88
2022/08/27 05:49:17;;;;;;;12.52;5.68;;;;;;;22.41;83.90;100033.25;5028125;28;20112;-88
2022/08/27 05:51:56;;;;;;;;;;;;;;;;;;;;;
2022/08/27 05:54:22;;;;;;;15.40;5.90;;;;;;;22.49;83.75;100038.22;5030270;28;20029;-88
2022/08/27 05:56:48;;;;;;;11.30;5.63;;;;;;;22.55;83.28;100033.81;5027830;28;20488;-86
2022/08/27 06:01:58;;;;;;;10.88;5.47;;;;;;;22.63;83.25;100036.13;5035987;28;20199;-88
2022/08/27 06:04:24;;;;;;;11.73;6.53;;;;;;;22.71;82.88;100038.38;5034091;28;20048;-88
2022/08/27 06:06:51;;;;;;;11.90;6.25;;;;;;;22.79;82.31;100032.75;5031968;28;20033;-88
2022/08/27 06:09:23;;;;;;;7.15;6.10;;;;;;;22.84;82.56;100035.50;5030683;28;20354;-87
2022/08/27 06:11:49;;;;;;;10.55;5.38;;;;;;;22.84;82.61;100030.19;5031368;28;20171;-86
2022/08/27 06:14:15;;;;;;;12.18;6.47;;;;;;;22.92;82.56;100028.22;5030651;28;20451;-86
2022/08/27 06:16:43;;;;;;;10.65;5.25;;;;;;;23.00;81.81;100035.81;5028417;28;20048;-88
2022/08/27 06:19:12;;;;;;;11.10;5.72;;;;;;;23.03;82.05;100030.84;5027838;28;20409;-90
2022/08/27 06:21:40;;;;;;;11.02;5.00;;;;;;;23.13;81.95;100032.91;5029490;28;20033;-87
2022/08/27 06:24:24;;;;;;;10.10;5.70;;;;;;;23.24;81.59;100033.88;5027656;28;20416;-89
2022/08/27 06:26:49;;;;;;;21.25;5.82;;;;;;;23.31;81.39;100027.38;5028913;28;20029;-89
2022/08/27 06:29:15;;;;;;;9.32;5.00;;;;;;;23.38;80.46;100037.84;5027800;28;20036;-89
2022/08/27 06:31:41;;;;;;;13.82;5.53;;;;;;;23.42;80.28;100031.81;5028380;28;20033;-86
2022/08/27 06:34:09;;;;;;;8.45;4.80;;;;;;;23.52;80.15;100031.19;5028975;28;20021;-88
2022/08/27 06:36:38;;;;;;;10.55;5.25;;;;;;;23.62;79.86;100036.72;5027064;28;20038;-88
2022/08/27 06:39:04;;;;;;;9.23;5.40;;;;;;;23.71;79.72;100037.13;5026939;28;20021;-87
2022/08/27 06:41:32;;;;;;;14.40;5.97;;;;;;;23.79;79.60;100034.06;5026968;28;20076;-86
2022/08/27 06:43:57;;;;;;;6.57;5.10;;;;;;;23.89;79.17;100036.09;5026827;28;20030;-87
2022/08/27 06:46:28;;;;;;;14.07;5.40;;;;;;;23.95;78.61;100035.13;5027776;28;20530;-87
2022/08/27 06:48:58;;;;;;;8.38;5.20;;;;;;;24.04;78.38;100037.13;5029641;28;20033;-88
2022/08/27 06:51:28;;;;;;;10.75;5.80;;;;;;;24.14;78.13;100031.94;5028542;28;20032;-88
2022/08/27 06:53:56;;;;;;;8.80;5.28;;;;;;;24.24;77.77;100031.28;5028664;28;20107;-89
2022/08/27 06:56:22;;;;;;;8.07;5.40;;;;;;;24.36;77.57;100036.56;5027121;28;20061;-88
2022/08/27 06:59:08;;;;;;;9.50;4.90;;;;;;;24.43;77.41;100035.31;5029985;28;20040;-88
2022/08/27 07:01:37;;;;;;;13.32;4.70;;;;;;;24.53;77.11;100036.53;5027206;28;20033;-88
2022/08/27 07:04:06;;;;;;;10.77;4.55;;;;;;;24.63;76.59;100042.75;5028205;28;20051;-87
2022/08/27 07:06:38;;;;;;;13.48;4.60;;;;;;;24.73;75.93;100045.56;5030412;28;20539;-89
2022/08/27 07:09:07;;;;;;;9.70;4.57;;;;;;;24.84;75.58;100037.69;5027830;28;20029;-88
2022/08/27 07:11:33;;;;;;;15.93;5.20;;;;;;;24.94;75.59;100043.16;5027719;28;20112;-89
2022/08/27 07:13:59;;;;;;;10.98;5.60;;;;;;;25.01;74.86;100046.47;5027121;28;20415;-89
2022/08/27 07:16:26;;;;;;;7.22;5.55;;;;;;;25.08;74.78;100049.72;5026699;28;20106;-88
2022/08/27 07:18:57;;;;;;;8.75;5.00;;;;;;;25.20;74.98;100052.25;5026778;28;20124;-87
2022/08/27 07:21:23;;;;;;;11.48;5.75;;;;;;;25.25;74.48;100046.97;5019421;22;20065;-63
2022/08/27 07:23:51;;;;;;;14.48;5.28;;;;;;;25.40;73.90;100050.63;5007960;28;20076;-62
2022/08/27 07:26:18;;;;;;;15.25;4.90;;;;;;;25.52;73.63;100052.31;5007868;28;20030;-63
2022/08/27 07:28:45;;;;;;;9.23;5.03;;;;;;;25.63;72.94;100048.66;5008314;28;20037;-63
2022/08/27 07:31:14;;;;;;;12.38;5.70;;;;;;;25.71;73.24;100051.72;5008160;28;20022;-64
2022/08/27 07:33:39;;;;;;;10.57;5.47;;;;;;;25.75;73.18;100052.81;5008232;28;20029;-63
2022/08/27 07:36:06;;;;;;;8.48;4.97;;;;;;;25.89;73.33;100052.41;5007642;28;20128;-63
2022/08/27 07:38:33;;;;;;;10.27;4.82;;;;;;;26.02;72.33;100058.09;5007720;28;20025;-63
2022/08/27 07:40:59;;;;;;;14.13;5.50;;;;;;;26.10;71.26;100059.47;5007656;28;20029;-63
2022/08/27 07:46:08;;;;;;;14.50;5.97;;;;;;;26.31;71.07;100060.47;5008046;28;20064;-63
2022/08/27 07:48:34;;;;;;;12.25;5.80;;;;;;;26.38;70.99;100061.84;5008002;28;20034;-63
2022/08/27 07:51:04;;;;;;;17.60;6.15;;;;;;;26.43;70.73;100053.06;5007995;28;20030;-64
2022/08/27 07:53:33;;;;;;;9.25;5.07;;;;;;;26.63;69.79;100060.38;5008122;28;20113;-62
2022/08/27 07:56:06;;;;;;;11.60;5.18;;;;;;;26.67;69.77;100064.13;5007721;28;20072;-63
2022/08/27 07:58:32;;;;;;;12.40;5.15;;;;;;;26.79;69.31;100062.06;5007958;28;20021;-63
2022/08/27 08:00:58;;;;;;;6.80;4.45;;;;;;;26.92;68.73;100066.13;5007339;28;20132;-63
2022/08/27 08:03:24;;;;;;;9.27;4.20;;;;;;;27.04;68.89;100064.03;5007684;28;20066;-63
2022/08/27 08:05:52;;;;;;;14.15;4.65;;;;;;;27.10;69.12;100057.63;5007617;28;20044;-63
2022/08/27 08:08:18;;;;;;;18.05;5.90;;;;;;;27.16;68.52;100064.59;5006083;28;20034;-63
2022/08/27 08:10:44;;;;;;;10.70;4.35;;;;;;;27.29;68.74;100066.78;5007598;28;20109;-63
2022/08/27 08:13:09;;;;;;;13.55;5.30;;;;;;;27.39;69.22;100063.34;5006331;28;20046;-64
2022/08/27 08:15:35;;;;;;;12.82;4.68;;;;;;;27.52;67.63;100064.66;5008042;28;20034;-64
2022/08/27 08:18:00;;;;;;;11.82;4.72;;;;;;;27.60;66.98;100064.97;5010401;28;20143;-63
2022/08/27 08:20:26;;;;;;;9.68;4.57;;;;;;;27.71;66.99;100063.13;5016402;28;20129;-63
2022/08/27 08:22:52;;;;;;;13.90;5.18;;;;;;;27.81;67.39;100063.13;5029264;28;20455;-64
2022/08/27 08:25:17;;;;;;;11.77;4.35;;;;;;;27.94;65.82;100054.53;5029079;28;20064;-63
2022/08/27 08:27:43;;;;;;;7.95;4.78;;;;;;;28.08;64.77;100054.81;5030925;28;20029;-63
2022/08/27 08:30:10;;;;;;;6.70;4.72;;;;;;;28.20;64.53;100054.53;5012754;28;20033;-65
2022/08/27 08:32:35;;;;;;;7.90;4.10;;;;;;;28.25;64.98;100051.88;5030950;28;20078;-63
2022/08/27 08:35:03;;;;;;;10.20;4.25;;;;;;;28.31;64.78;100046.22;5028270;28;20030;-63
2022/08/27 08:37:28;;;;;;;13.52;4.72;;;;;;;28.39;64.20;100052.88;5012671;28;20033;-64
2022/08/27 08:39:54;;;;;;;10.48;4.43;;;;;;;28.33;64.51;100054.00;5029755;28;20366;-64
2022/08/27 08:42:44;;;;;;;9.88;4.50;;;;;;;28.26;65.16;100048.91;5030999;28;20030;-63
2022/08/27 08:45:15;;;;;;;14.60;5.40;;;;;;;28.35;65.87;100047.28;5025097;28;20109;-64
2022/08/27 08:47:51;;;;;;;9.63;4.43;;;;;;;28.27;65.95;100049.72;5027666;28;20211;-63
2022/08/27 08:50:25;;;;;;;10.48;4.93;;;;;;;28.18;65.68;100048.63;5030225;28;20033;-63
2022/08/27 08:53:03;;;;;;;12.55;4.63;;;;;;;28.16;64.17;100045.41;5029520;28;20041;-64
2022/08/27 08:55:47;;;;;;;10.88;4.75;;;;;;;28.11;64.22;100034.72;5011668;28;20034;-63
2022/08/27 08:58:24;;;;;;;17.98;4.78;;;;;;;28.43;62.23;100037.88;5030551;28;20449;-64
2022/08/27 09:00:55;;;;;;;17.40;4.85;;;;;;;28.58;61.86;100035.16;5027547;28;20532;-64
2022/08/27 09:03:20;;;;;;;11.40;4.95;;;;;;;28.54;62.33;100033.28;5029486;28;20034;-64
2022/08/27 09:05:53;;;;;;;12.38;5.28;;;;;;;28.44;62.88;100025.28;5030098;28;20052;-64
2022/08/27 09:08:31;;;;;;;11.60;5.20;;;;;;;28.34;63.60;100034.16;5012351;28;20171;-63
2022/08/27 09:11:28;;;;;;;12.13;5.45;;;;;;;28.55;60.73;100024.19;5027802;28;20113;-64
2022/08/27 09:13:58;;;;;;;7.88;4.88;;;;;;;28.83;59.66;100030.81;5027837;28;20063;-64
2022/08/27 09:16:24;;;;;;;8.75;5.05;;;;;;;28.76;59.36;100019.53;5030292;28;20431;-63
2022/08/27 09:18:50;;;;;;;14.68;5.32;;;;;;;28.60;58.88;100018.78;5029698;28;20025;-63
2022/08/27 09:21:40;;;;;;;15.27;4.47;;;;;;;28.50;57.27;100013.47;5026678;28;20049;-63
2022/08/27 09:24:13;;;;;;;10.63;5.47;;;;;;;28.57;59.01;100008.63;5009976;28;20485;-65
2022/08/27 09:26:42;;;;;;;10.38;4.90;;;;;;;28.47;58.26;100011.34;5022994;28;20091;-63
2022/08/27 09:29:20;;;;;;;13.13;5.30;;;;;;;28.46;59.73;100009.72;5029662;28;20446;-63
2022/08/27 09:31:54;;;;;;;10.68;5.60;;;;;;;28.45;59.99;100006.25;5027690;28;20060;-63
2022/08/27 09:34:20;;;;;;;18.27;5.43;;;;;;;28.56;60.43;100013.19;5029471;28;20072;-64
2022/08/27 09:36:53;;;;;;;12.85;5.10;;;;;;;28.66;60.43;100007.78;5029313;28;20488;-63
2022/08/27 09:39:24;;;;;;;11.85;5.50;;;;;;;28.74;60.60;100007.22;5008846;28;20029;-64
2022/08/27 09:41:50;;;;;;;13.27;5.80;;;;;;;28.91;58.50;100008.75;5009415;28;20037;-64
2022/08/27 09:44:19;;;;;;;8.45;4.57;;;;;;;29.05;57.67;100007.06;5009421;28;20095;-64
2022/08/27 09:46:57;;;;;;;9.90;4.95;;;;;;;29.08;56.18;100008.41;5009365;28;20069;-64
2022/08/27 09:49:25;;;;;;;11.80;5.75;;;;;;;29.03;58.20;99998.50;5026062;28;20510;-64
2022/08/27 09:51:52;;;;;;;14.52;5.10;;;;;;;29.05;59.04;99993.66;5010516;28;20091;-64
2022/08/27 09:54:45;;;;;;;11.02;6.28;;;;;;;28.97;57.94;99994.25;5023803;28;20038;-64
2022/08/27 09:57:14;;;;;;;8.88;4.97;;;;;;;29.32;56.38;99999.38;5006596;28;20064;-65
2022/08/27 09:59:52;;;;;;;9.20;5.50;;;;;;;29.46;55.23;99988.03;5020678;28;20499;-64
2022/08/27 10:02:25;;;;;;;9.60;5.70;;;;;;;29.34;55.80;99986.47;5007758;28;20457;-64
2022/08/27 10:04:54;;;;;;;10.52;5.32;;;;;;;29.21;56.81;99983.66;5028406;28;20041;-65
2022/08/27 10:07:52;;;;;;;15.63;5.70;;;;;;;29.20;57.54;99977.47;5028501;28;20040;-64
2022/08/27 10:11:03;;;;;;;14.70;5.80;;;;;;;29.26;54.69;99984.41;5004717;28;20044;-64
2022/08/27 10:13:50;;;;;;;10.68;5.35;;;;;;;29.20;55.89;99987.41;5010871;28;20079;-64
2022/08/27 10:16:32;;;;;;;12.73;5.53;;;;;;;28.94;55.49;99989.44;5028825;28;20412;-64
2022/08/27 10:19:06;;;;;;;7.53;5.82;;;;;;;28.71;56.88;99999.72;5009417;28;20496;-64
2022/08/27 10:21:46;;;;;;;8.38;5.47;;;;;;;28.54;58.76;100001.94;5025122;28;20048;-64
2022/08/27 10:24:17;;;;;;;10.95;6.22;;;;;;;28.36;59.74;100006.00;5026527;28;20071;-66
2022/08/27 10:26:47;;;;;;;10.90;6.50;;;;;;;28.19;61.23;100004.72;5018734;28;20026;-66
2022/08/27 10:29:37;;;;;;;13.48;6.40;;;;;;;28.04;62.99;99992.94;5022206;28;20021;-65
2022/08/27 10:32:38;;;;;;;27.00;9.00;;;;;;;27.39;73.51;100007.16;5026795;28;20568;-65
2022/08/27 10:35:03;;;;;;;26.77;11.27;;;;;;;26.37;79.92;100032.72;5027412;28;20073;-67
2022/08/27 10:37:35;;;;;;;24.92;10.50;;;;;;;25.24;88.47;100026.69;5027192;28;20453;-66
2022/08/27 10:40:10;;;;;;;20.35;10.57;;;;;;;24.56;91.40;100012.06;5024946;28;20039;-67
2022/08/27 10:42:45;;;;;;;16.45;10.30;;;;;;;24.23;93.04;100010.25;5022597;28;20116;-68
2022/08/27 10:45:28;;;;;;;19.85;13.88;;;;;;;24.13;95.93;100005.56;5003868;28;20026;-66
2022/08/27 10:48:09;;;;;;;20.67;11.85;;;;;;;24.15;93.96;100000.81;5025039;28;20029;-65
2022/08/27 10:50:54;;;;;;;17.35;10.70;;;;;;;24.16;93.68;99999.75;5028164;28;20052;-66
2022/08/27 10:53:38;;;;;;;23.17;12.15;;;;;;;24.23;97.98;100002.25;5026277;28;20508;-66
2022/08/27 10:56:20;;;;;;;19.70;12.15;;;;;;;24.36;95.27;100004.59;5014864;28;20404;-66
2022/08/27 10:59:04;;;;;;;15.98;12.35;;;;;;;24.33;96.22;100003.25;5026662;28;20033;-65
2022/08/27 11:01:57;;;;;;;19.95;11.60;;;;;;;24.33;95.88;100007.75;5023356;28;20041;-66
2022/08/27 11:04:31;;;;;;;16.27;8.43;;;;;;;24.52;88.72;100005.63;5018964;28;20451;-66
2022/08/27 11:07:04;;;;;;;11.07;6.70;;;;;;;24.47;84.66;99998.38;5027087;28;20033;-64
2022/08/27 11:09:29;;;;;;;11.07;6.35;;;;;;;24.51;79.64;99977.38;5009107;28;20124;-66
2022/08/27 11:11:59;;;;;;;9.35;3.85;;;;;;;24.37;77.01;99982.25;5023372;28;20156;-63
2022/08/27 11:14:31;;;;;;;8.13;3.92;;;;;;;24.14;75.02;99973.38;5024215;28;20214;-63
2022/08/27 11:17:05;;;;;;;7.25;4.10;;;;;;;24.03;74.08;99990.28;5017689;28;20041;-63
2022/08/27 11:19:36;;;;;;;10.25;5.90;;;;;;;23.68;82.34;100027.75;5025335;28;20169;-64
2022/08/27 11:22:32;;;;;;;16.90;8.18;;;;;;;22.60;89.18;100031.28;5024318;28;20551;-66
2022/08/27 11:25:31;;;;;;;12.27;7.85;;;;;;;21.83;91.56;100049.91;4991999;28;20042;-66
2022/08/27 11:27:59;;;;;;;13.15;7.43;;;;;;;21.29;93.46;100087.19;5025918;28;20054;-66
2022/08/27 11:30:42;;;;;;;11.23;6.68;;;;;;;20.95;95.20;100121.19;5024910;28;20037;-62
2022/08/27 11:33:14;;;;;;;8.32;2.97;;;;;;;20.23;98.51;100143.03;5024654;28;20040;-63
2022/08/27 11:35:58;;;;;;;6.28;4.03;;;;;;;19.98;98.27;100122.66;5023688;28;20029;-66
2022/08/27 11:38:32;;;;;;;10.02;5.28;;;;;;;19.99;99.60;100134.03;5025544;28;20555;-67
2022/08/27 11:41:17;;;;;;;11.73;6.00;;;;;;;19.62;100.00;100122.47;5007190;28;20072;-63
2022/08/27 11:43:44;;;;;;;6.00;4.50;;;;;;;19.77;100.00;100093.94;5025521;28;20029;-64
2022/08/27 11:46:10;;;;;;;10.60;6.00;;;;;;;20.15;100.00;100070.03;5023756;28;20021;-62